Decoded Metar for RJGG (NAGOYA/CHUBU in JAPAN) (IATA:NGO) | Meteo·Mobile Aviation Weather
aviador You're here:

RJGG Decoded Metar

NAGOYA/CHUBU in JAPAN
Report Time2018-09-18 15:00:00
UTC Time2018-09-18 15:38:42
Flight Rules vfr VFR
Wind340° at 06 kt
W.Decomp.*RWY 36: 5.8 kt HW 1.3 kt LCW
W.Rank340° ranks 5
Current wind is below 340° avg. (10.5)
Visibility9999 m
Phenomena:N/A
Clouds:Few 030 Hf
Expected CloudBase > 3,600 ft AGL from Temp-Dew spread
CeilingNone
Temp24°C (ISA +9)
Dew Point15°C (57% RH)
AAT23.4°C
QNH1013 hPa
Density Alt1,293 ft
Elevation16 ft
Report Wrong Elevation
Raw Report
METAR RJGG 181500Z 34006KT 9999 FEW030 BKN/// 24/15 Q1013 NOSIG=

Extra information for RJGG:More info

Metar Taf Metar & Taf Last 4 Metars F.Rules Stats Wind Profile Meteogram Temp Stats Airport Information Weather charts Add Link Nearby VenuesMetar ALERT Operation Metar Decoded Social comments